createdAt,value
2018-10-19T00:04:35.368Z,100
2018-10-19T00:09:35.251Z,98.5
2018-10-19T00:14:48.192Z,99.8
2018-10-19T00:19:48.069Z,99.1
2018-10-19T00:24:48.009Z,98.3
2018-10-19T00:29:47.928Z,97.4
2018-10-19T00:34:48.130Z,97.1
2018-10-19T00:39:48.142Z,98.1
2018-10-19T00:44:47.931Z,97.2
2018-10-19T00:49:52.544Z,98
2018-10-19T00:54:52.431Z,98.4
2018-10-19T01:00:05.585Z,97.5
2018-10-19T01:05:05.765Z,96.9
2018-10-19T01:10:05.445Z,97.3
2018-10-19T01:15:05.700Z,97
2018-10-19T01:20:05.324Z,97
2018-10-19T01:25:05.438Z,97
2018-10-19T01:30:05.494Z,96.3
2018-10-19T01:35:05.501Z,97.4
2018-10-19T01:40:05.443Z,97.7
2018-10-19T01:45:17.157Z,96.7
2018-10-19T01:50:16.849Z,97.4
2018-10-19T01:55:17.014Z,97
2018-10-19T02:00:16.971Z,96.7
2018-10-19T02:05:16.905Z,96.3
2018-10-19T02:10:16.888Z,97
2018-10-19T02:15:17.309Z,96.5
2018-10-19T02:20:20.716Z,97.2
2018-10-19T02:25:18.991Z,97.4
2018-10-19T02:30:29.357Z,96.9
2018-10-19T02:35:29.285Z,96.4
2018-10-19T02:40:29.058Z,97.1
2018-10-19T02:45:29.224Z,97.8
2018-10-19T02:50:29.281Z,97.3
2018-10-19T02:55:32.457Z,96
2018-10-19T03:00:32.618Z,96.7
2018-10-19T03:05:34.564Z,96.2
2018-10-19T03:10:34.524Z,96.1
2018-10-19T03:15:46.961Z,96.7
2018-10-19T03:20:46.891Z,97.2
2018-10-19T03:25:46.924Z,97
2018-10-19T03:30:47.320Z,98.2
2018-10-19T03:35:46.742Z,97.5
2018-10-19T03:40:46.900Z,99.1
2018-10-19T03:45:46.998Z,97.9
2018-10-19T03:50:48.841Z,99.1
2018-10-19T03:55:48.707Z,99.2
2018-10-19T04:00:58.696Z,98.8
2018-10-19T04:05:58.435Z,98.3
2018-10-19T04:10:58.608Z,97.7
2018-10-19T04:15:58.645Z,97.1
2018-10-19T04:20:58.522Z,96.9
2018-10-19T04:25:58.582Z,96.9
2018-10-19T04:30:58.610Z,96
2018-10-19T04:35:59.129Z,96.7
2018-10-19T04:40:59.255Z,96.6
2018-10-19T04:46:11.688Z,97.2
2018-10-19T04:51:11.924Z,98
2018-10-19T04:56:11.554Z,96.9
2018-10-19T05:01:11.527Z,96.6
2018-10-19T05:06:11.928Z,97.9
2018-10-19T05:11:11.849Z,97.7
2018-10-19T05:16:11.382Z,97.7
2018-10-19T05:21:15.292Z,98.2
2018-10-19T05:26:15.311Z,98.4
2018-10-19T05:31:27.607Z,97.9
2018-10-19T05:36:27.589Z,99
2018-10-19T05:41:27.447Z,100
2018-10-19T05:46:27.520Z,99.1
2018-10-19T05:51:27.449Z,98.6
2018-10-19T05:56:27.561Z,98.2
2018-10-19T06:01:27.471Z,98.1
2018-10-19T06:06:28.356Z,98.5
2018-10-19T06:11:28.304Z,99
2018-10-19T06:16:40.733Z,99.8
2018-10-19T06:21:40.693Z,98.9
2018-10-19T06:26:40.579Z,99.3
2018-10-19T06:31:40.619Z,99.3
2018-10-19T06:36:40.428Z,98.7
2018-10-19T06:41:40.564Z,99.8
2018-10-19T06:46:40.675Z,100
2018-10-19T06:51:43.424Z,100
2018-10-19T06:56:43.077Z,100
2018-10-19T07:01:53.624Z,100
2018-10-19T07:06:53.321Z,100
2018-10-19T07:11:53.200Z,100
2018-10-19T07:16:53.483Z,100
2018-10-19T07:21:53.396Z,100
2018-10-19T07:26:53.389Z,100
2018-10-19T07:31:53.464Z,100
2018-10-19T07:36:53.534Z,100
2018-10-19T07:41:53.694Z,100
2018-10-19T07:47:06.550Z,99.9
2018-10-19T07:52:05.921Z,99.8
2018-10-19T07:57:06.067Z,98.1
2018-10-19T08:02:06.292Z,98.3
2018-10-19T08:07:06.104Z,99
2018-10-19T08:12:06.066Z,96.7
2018-10-19T08:17:06.312Z,97.6
2018-10-19T08:22:06.437Z,97.2
2018-10-19T08:27:06.290Z,95.9
2018-10-19T08:32:18.914Z,96.3
2018-10-19T08:37:18.811Z,96.3
2018-10-19T08:42:18.589Z,93.6
2018-10-19T08:47:18.828Z,93
2018-10-19T08:52:18.661Z,91.7
2018-10-19T08:57:18.668Z,91.1
2018-10-19T09:02:18.788Z,91
2018-10-19T09:07:19.185Z,90.7
2018-10-19T09:12:18.930Z,91.3
2018-10-19T09:17:31.668Z,87.9
2018-10-19T09:22:31.648Z,87.5
2018-10-19T09:27:31.609Z,87.4
2018-10-19T09:32:31.603Z,87.9
2018-10-19T09:37:31.642Z,87.1
2018-10-19T09:42:31.420Z,85.8
2018-10-19T09:47:31.614Z,86.9
2018-10-19T09:52:32.095Z,86.4
2018-10-19T09:57:31.928Z,85.8
2018-10-19T10:02:44.385Z,85.6
2018-10-19T10:07:44.238Z,83.8
2018-10-19T10:12:44.114Z,84.6
2018-10-19T10:17:44.273Z,83.7
2018-10-19T10:22:44.090Z,83.1
2018-10-19T10:27:44.253Z,82.9
2018-10-19T10:32:44.273Z,83.2
2018-10-19T10:37:47.179Z,83.3
2018-10-19T10:42:46.864Z,81.7
2018-10-19T10:47:59.837Z,82.4
2018-10-19T10:52:59.826Z,82.1
2018-10-19T10:57:59.741Z,82
2018-10-19T11:02:59.774Z,82.1
2018-10-19T11:07:59.798Z,80.7
2018-10-19T11:12:59.681Z,80.5
2018-10-19T11:17:59.750Z,80.5
2018-10-19T11:23:00.022Z,79.6
2018-10-19T11:27:59.996Z,79.3
2018-10-19T11:33:12.032Z,78.4
2018-10-19T11:38:11.784Z,79.1
2018-10-19T11:43:12.170Z,78.6
2018-10-19T11:48:11.936Z,78.6
2018-10-19T11:53:11.767Z,76.6
2018-10-19T11:58:12.176Z,76.3
2018-10-19T12:03:11.791Z,76.6
2018-10-19T12:08:13.087Z,76.7
2018-10-19T12:13:13.422Z,76.2
2018-10-19T12:18:25.692Z,76.3
2018-10-19T12:23:25.603Z,74
2018-10-19T12:28:25.624Z,74.2
2018-10-19T12:33:25.408Z,72.9
2018-10-19T12:38:25.580Z,72.9
2018-10-19T12:43:25.450Z,69.6
2018-10-19T12:48:25.671Z,69.2
2018-10-19T12:53:27.261Z,68.9
2018-10-19T12:58:26.996Z,68.2
2018-10-19T13:03:40.270Z,69
2018-10-19T13:08:39.939Z,68.1
2018-10-19T13:13:39.823Z,67.5
2018-10-19T13:18:39.705Z,65.8
2018-10-19T13:23:39.959Z,66.9
2018-10-19T13:28:39.995Z,65.3
2018-10-19T13:33:39.731Z,64.6
2018-10-19T13:38:40.157Z,65
2018-10-19T13:43:40.004Z,64.8
2018-10-19T13:48:52.224Z,63.9
2018-10-19T13:53:51.985Z,65.1
2018-10-19T13:58:52.131Z,64.8
2018-10-19T14:03:51.866Z,64.7
2018-10-19T14:08:52.107Z,65.4
2018-10-19T14:13:52.031Z,65.7
2018-10-19T14:18:52.104Z,66.1
2018-10-19T14:23:53.144Z,66.6
2018-10-19T14:28:52.898Z,67.9
2018-10-19T14:34:05.581Z,67.7
2018-10-19T14:39:05.299Z,68.4
2018-10-19T14:44:05.234Z,68.3
2018-10-19T14:49:05.226Z,68.8
2018-10-19T14:54:05.195Z,69.3
2018-10-19T14:59:05.336Z,69.6
2018-10-19T15:04:05.217Z,70
2018-10-19T15:09:05.513Z,70.6
2018-10-19T15:14:05.656Z,71
2018-10-19T15:19:17.623Z,71.8
2018-10-19T15:24:17.980Z,71.8
2018-10-19T15:29:17.497Z,73.4
2018-10-19T15:34:17.481Z,74.3
2018-10-19T15:39:17.589Z,75.9
2018-10-19T15:44:17.499Z,76.5
2018-10-19T15:49:17.466Z,76.5
2018-10-19T15:54:20.682Z,77.4
2018-10-19T15:59:19.826Z,78
2018-10-19T16:04:33.677Z,78.3
2018-10-19T16:09:33.442Z,79.6
2018-10-19T16:14:33.399Z,81
2018-10-19T16:19:33.363Z,81.4
2018-10-19T16:24:33.349Z,81.7
2018-10-19T16:29:33.372Z,82.8
2018-10-19T16:34:33.411Z,83.1
2018-10-19T16:39:33.375Z,83.5
2018-10-19T16:44:33.525Z,83.9
2018-10-19T16:49:44.803Z,85.1
2018-10-19T16:54:44.524Z,85.5
2018-10-19T16:59:44.776Z,86
2018-10-19T17:04:44.623Z,85
2018-10-19T17:09:44.608Z,86
2018-10-19T17:14:44.588Z,86.1
2018-10-19T17:19:44.558Z,85.6
2018-10-19T17:24:45.817Z,86.1
2018-10-19T17:29:45.596Z,86.7
2018-10-19T17:34:56.946Z,87.3
2018-10-19T17:39:56.670Z,87.2
2018-10-19T17:44:56.681Z,87.6
2018-10-19T17:49:56.669Z,88.1
2018-10-19T17:54:56.657Z,88
2018-10-19T17:59:56.726Z,89.8
2018-10-19T18:04:57.022Z,88.6
2018-10-19T18:09:56.649Z,89.4
2018-10-19T18:14:57.115Z,90
2018-10-19T18:20:09.273Z,89.2
2018-10-19T18:25:08.949Z,90.1
2018-10-19T18:30:08.763Z,89.6
2018-10-19T18:35:08.824Z,89.2
2018-10-19T18:40:08.748Z,89.4
2018-10-19T18:45:08.756Z,91.7
2018-10-19T18:50:09.059Z,91.5
2018-10-19T18:55:10.496Z,90.3
2018-10-19T19:00:09.589Z,91.3
2018-10-19T19:05:22.066Z,90.8
2018-10-19T19:10:21.784Z,91
2018-10-19T19:15:21.758Z,90.7
2018-10-19T19:20:21.818Z,91
2018-10-19T19:25:22.095Z,92
2018-10-19T19:30:22.207Z,92
2018-10-19T19:35:22.125Z,92.5
2018-10-19T19:40:26.067Z,92
2018-10-19T19:45:26.310Z,92
2018-10-19T19:50:39.543Z,91.7
2018-10-19T19:55:38.870Z,92.8
2018-10-19T20:00:38.189Z,91.9
2018-10-19T20:05:38.512Z,92.9
2018-10-19T20:10:37.973Z,93.3
2018-10-19T20:15:41.548Z,93.3
2018-10-19T20:20:41.639Z,93.4
2018-10-19T20:25:43.543Z,92.7
2018-10-19T20:30:43.047Z,92.4
2018-10-19T20:35:56.034Z,92.6
2018-10-19T20:40:55.970Z,93.8
2018-10-19T20:45:55.939Z,94.4
2018-10-19T20:50:55.775Z,95.2
2018-10-19T20:55:55.776Z,97.4
2018-10-19T21:00:55.803Z,95.4
2018-10-19T21:05:56.584Z,95
2018-10-19T21:10:57.554Z,95.1
2018-10-19T21:15:57.315Z,95.3
2018-10-19T21:21:10.542Z,94.7
2018-10-19T21:26:10.430Z,95.4
2018-10-19T21:31:10.322Z,95.7
2018-10-19T21:36:10.320Z,95.5
2018-10-19T21:41:10.541Z,95.2
2018-10-19T21:46:10.326Z,94.9
2018-10-19T21:51:10.291Z,94.7
2018-10-19T21:56:10.434Z,94.5
2018-10-19T22:01:10.326Z,94.4
2018-10-19T22:06:22.218Z,95.3
2018-10-19T22:11:21.962Z,94.8
2018-10-19T22:16:21.991Z,95.6
2018-10-19T22:21:22.294Z,95.8
2018-10-19T22:26:21.986Z,96.7
2018-10-19T22:31:21.994Z,96.1
2018-10-19T22:36:21.976Z,95.9
2018-10-19T22:41:22.002Z,95.8
2018-10-19T22:46:21.981Z,96.1
2018-10-19T22:51:33.262Z,97
2018-10-19T22:56:33.085Z,97.2
2018-10-19T23:01:32.990Z,98.5
2018-10-19T23:06:32.986Z,97.9
2018-10-19T23:11:33.074Z,97
2018-10-19T23:16:32.988Z,96.8
2018-10-19T23:21:33.263Z,97.5
2018-10-19T23:26:34.238Z,97.1
2018-10-19T23:31:34.431Z,97.4
2018-10-19T23:36:46.034Z,96.8
2018-10-19T23:41:45.815Z,96.3
2018-10-19T23:46:45.778Z,96.6
2018-10-19T23:51:45.771Z,96.6
2018-10-19T23:56:46.219Z,95.9
